Time;durP1;ratioP1;P1;durP2;ratioP2;P2;SDS_P1;SDS_P2;PMS_P1;PMS_P2;Temp;Humidity;BMP_temperature;BMP_pressure;BME280_temperature;BME280_humidity;BME280_pressure;Samples;Min_cycle;Max_cycle;Signal;HPM_P1;HPM_P2
2021/11/22 00:01:30;;;;;;;1999.90;999.90;;;;;;;;;;4995487;28;20033;-91
2021/11/22 00:03:58;;;;;;;1999.90;999.90;;;;;;;;;;5011451;28;20030;-91
2021/11/22 00:06:24;;;;;;;1999.90;999.90;;;;;;;;;;5007772;28;20037;-91
2021/11/22 00:08:51;;;;;;;1999.90;999.90;;;;;;;;;;4995021;28;20034;-90
2021/11/22 00:11:17;;;;;;;1999.90;999.90;;;;;;;;;;5002090;28;20030;-91
2021/11/22 00:13:42;;;;;;;1999.90;999.90;;;;;;;;;;4985465;28;20045;-91
2021/11/22 00:16:08;;;;;;;1999.90;999.90;;;;;;;;;;5018618;28;20396;-91
2021/11/22 00:18:35;;;;;;;1999.90;999.90;;;;;;;;;;4985815;28;20037;-91
2021/11/22 00:21:01;;;;;;;1999.90;999.90;;;;;;;;;;5018118;28;20037;-91
2021/11/22 00:23:26;;;;;;;1999.90;999.90;;;;;;;;;;4993616;28;20032;-91
2021/11/22 00:25:55;;;;;;;1999.90;999.90;;;;;;;;;;5018642;28;20095;-91
2021/11/22 00:28:20;;;;;;;1999.90;999.90;;;;;;;;;;5018359;28;20034;-91
2021/11/22 00:30:47;;;;;;;1999.90;999.90;;;;;;;;;;5018349;28;20085;-91
2021/11/22 00:33:13;;;;;;;1999.90;999.90;;;;;;;;;;4985566;28;20044;-90
2021/11/22 00:35:46;;;;;;;1999.90;999.90;;;;;;;;;;5018512;28;20029;-91
2021/11/22 00:38:12;;;;;;;1999.90;999.90;;;;;;;;;;5018983;28;20451;-91
2021/11/22 00:40:39;;;;;;;1999.90;999.90;;;;;;;;;;4985616;28;20037;-91
2021/11/22 00:43:09;;;;;;;1999.90;999.90;;;;;;;;;;5018248;28;20032;-90
2021/11/22 00:45:34;;;;;;;1999.90;999.90;;;;;;;;;;5018428;28;20030;-91
2021/11/22 00:48:03;;;;;;;1999.90;999.90;;;;;;;;;;5001902;28;20541;-92
2021/11/22 00:50:30;;;;;;;1999.90;999.90;;;;;;;;;;5001410;28;20487;-91
2021/11/22 00:52:59;;;;;;;1999.90;999.90;;;;;;;;;;5018118;28;20032;-90
2021/11/22 00:55:24;;;;;;;1999.90;999.90;;;;;;;;;;4985323;28;20116;-91
2021/11/22 00:57:53;;;;;;;1999.90;999.90;;;;;;;;;;5017644;28;20037;-91
2021/11/22 01:00:19;;;;;;;1999.90;999.90;;;;;;;;;;5016644;28;20029;-91
2021/11/22 01:02:46;;;;;;;1999.90;999.90;;;;;;;;;;5000625;28;20037;-91
2021/11/22 01:05:13;;;;;;;1999.90;999.90;;;;;;;;;;5017312;28;20400;-91
2021/11/22 01:07:39;;;;;;;1999.90;999.90;;;;;;;;;;5017794;28;20025;-91
2021/11/22 01:10:05;;;;;;;1999.90;999.90;;;;;;;;;;4981656;28;20032;-91
2021/11/22 01:12:34;;;;;;;1999.90;999.90;;;;;;;;;;4965588;28;20084;-91
2021/11/22 01:15:05;;;;;;;1999.90;999.90;;;;;;;;;;4997661;28;20037;-91
2021/11/22 01:17:32;;;;;;;1999.90;999.90;;;;;;;;;;4981722;28;20034;-91
2021/11/22 01:19:58;;;;;;;1999.90;999.90;;;;;;;;;;4981374;28;20061;-91
2021/11/22 01:22:30;;;;;;;1999.90;999.90;;;;;;;;;;4999925;28;20051;-91
2021/11/22 01:24:57;;;;;;;1999.90;999.90;;;;;;;;;;5017359;28;20057;-91
2021/11/22 01:27:24;;;;;;;1999.90;999.90;;;;;;;;;;5000916;28;20042;-91
2021/11/22 01:29:49;;;;;;;1999.90;999.90;;;;;;;;;;5016997;28;20072;-91
2021/11/22 01:32:17;;;;;;;1999.90;999.90;;;;;;;;;;4984677;28;20099;-91
2021/11/22 01:34:43;;;;;;;1999.90;999.90;;;;;;;;;;5017121;28;20068;-90
2021/11/22 01:37:09;;;;;;;1999.90;999.90;;;;;;;;;;4985097;28;20048;-90
2021/11/22 01:39:34;;;;;;;1999.90;999.90;;;;;;;;;;5016811;28;20021;-91
2021/11/22 01:42:03;;;;;;;1999.90;999.90;;;;;;;;;;4984371;28;20147;-90
2021/11/22 01:44:30;;;;;;;1999.90;999.90;;;;;;;;;;5000579;28;20037;-90
2021/11/22 01:46:58;;;;;;;1999.90;999.90;;;;;;;;;;4983168;28;20412;-88
2021/11/22 01:49:26;;;;;;;1999.90;999.90;;;;;;;;;;5017140;28;20033;-89
2021/11/22 01:51:53;;;;;;;1999.90;999.90;;;;;;;;;;5017174;28;20033;-88
2021/11/22 01:54:18;;;;;;;1999.90;999.90;;;;;;;;;;5000356;28;20037;-88
2021/11/22 01:56:45;;;;;;;1999.90;999.90;;;;;;;;;;4984186;28;20052;-88
2021/11/22 01:59:15;;;;;;;1999.90;999.90;;;;;;;;;;5016365;28;20033;-88
2021/11/22 02:01:46;;;;;;;1999.90;999.90;;;;;;;;;;4986808;28;20045;-88
2021/11/22 02:04:13;;;;;;;1999.90;999.90;;;;;;;;;;4988599;28;20033;-87
2021/11/22 02:06:40;;;;;;;1999.90;999.90;;;;;;;;;;4983899;28;20127;-88
2021/11/22 02:09:05;;;;;;;1999.90;999.90;;;;;;;;;;5016493;28;20079;-88
2021/11/22 02:11:31;;;;;;;1999.90;999.90;;;;;;;;;;4984050;28;20045;-88
2021/11/22 02:13:57;;;;;;;1999.90;999.90;;;;;;;;;;4983908;28;20128;-87
2021/11/22 02:16:24;;;;;;;1999.90;999.90;;;;;;;;;;4983620;28;20034;-88
2021/11/22 02:18:51;;;;;;;1999.90;999.90;;;;;;;;;;4984046;28;20026;-88
2021/11/22 02:21:19;;;;;;;1999.90;999.90;;;;;;;;;;4983838;28;20128;-89
2021/11/22 02:23:45;;;;;;;1999.90;999.90;;;;;;;;;;4999136;28;20571;-90
2021/11/22 02:26:10;;;;;;;1999.90;999.90;;;;;;;;;;5015596;28;20068;-88
2021/11/22 02:28:36;;;;;;;1999.90;999.90;;;;;;;;;;4998772;28;20048;-88
2021/11/22 02:31:05;;;;;;;1999.90;999.90;;;;;;;;;;4983261;28;20039;-88
2021/11/22 02:33:31;;;;;;;1999.90;999.90;;;;;;;;;;5015768;28;20037;-90
2021/11/22 02:35:58;;;;;;;1999.90;999.90;;;;;;;;;;4983626;28;20033;-88
2021/11/22 02:38:35;;;;;;;1999.90;999.90;;;;;;;;;;4999578;28;20086;-88
2021/11/22 02:41:00;;;;;;;1999.90;999.90;;;;;;;;;;5016337;28;20116;-88
2021/11/22 02:43:31;;;;;;;1999.90;999.90;;;;;;;;;;4999219;28;20068;-88
2021/11/22 02:46:03;;;;;;;1999.90;999.90;;;;;;;;;;5016241;28;20181;-88
2021/11/22 02:48:28;;;;;;;1999.90;999.90;;;;;;;;;;4998306;28;20041;-88
2021/11/22 02:50:57;;;;;;;1999.90;999.90;;;;;;;;;;5015830;28;20136;-88
2021/11/22 02:53:24;;;;;;;1999.90;999.90;;;;;;;;;;4983247;28;20075;-88
2021/11/22 02:55:50;;;;;;;1999.90;999.90;;;;;;;;;;4983323;28;20037;-89
2021/11/22 02:58:20;;;;;;;1999.90;999.90;;;;;;;;;;4998983;28;20034;-89
2021/11/22 03:00:47;;;;;;;1999.90;999.90;;;;;;;;;;4996686;28;20034;-89
2021/11/22 03:03:16;;;;;;;1999.90;999.90;;;;;;;;;;4999051;28;20137;-87
2021/11/22 03:05:44;;;;;;;1999.90;999.90;;;;;;;;;;4998986;28;20025;-88
2021/11/22 03:08:10;;;;;;;1999.90;999.90;;;;;;;;;;4982996;28;20579;-88
2021/11/22 03:10:36;;;;;;;1999.90;999.90;;;;;;;;;;4999034;28;20033;-89
2021/11/22 03:13:05;;;;;;;1999.90;999.90;;;;;;;;;;4982814;28;20048;-89
2021/11/22 03:15:34;;;;;;;1999.90;999.90;;;;;;;;;;4983480;28;20029;-88
2021/11/22 03:18:01;;;;;;;1999.90;999.90;;;;;;;;;;4999746;28;20415;-88
2021/11/22 03:20:30;;;;;;;1999.90;999.90;;;;;;;;;;4999234;28;20037;-89
2021/11/22 03:22:58;;;;;;;1999.90;999.90;;;;;;;;;;4999108;28;20116;-88
2021/11/22 03:25:31;;;;;;;1999.90;999.90;;;;;;;;;;4982721;28;20496;-89
2021/11/22 03:27:58;;;;;;;1999.90;999.90;;;;;;;;;;5015829;28;20120;-88
2021/11/22 03:30:27;;;;;;;1999.90;999.90;;;;;;;;;;4998916;28;20519;-88
2021/11/22 03:32:58;;;;;;;1999.90;999.90;;;;;;;;;;4982783;28;20551;-88
2021/11/22 03:35:27;;;;;;;1999.90;999.90;;;;;;;;;;5015321;28;20041;-88
2021/11/22 03:37:54;;;;;;;1999.90;999.90;;;;;;;;;;5015185;28;20079;-88
2021/11/22 03:40:19;;;;;;;1999.90;999.90;;;;;;;;;;4998779;28;20033;-88
2021/11/22 03:43:32;;;;;;;1999.90;999.90;;;;;;;;;;4998320;28;20040;-89
2021/11/22 03:45:48;;;;;;;1999.90;999.90;;;;;;;;;;5010187;28;20048;-88
2021/11/22 03:48:17;;;;;;;1999.90;999.90;;;;;;;;;;5019494;28;20525;-88
2021/11/22 03:50:45;;;;;;;1999.90;999.90;;;;;;;;;;5019038;28;20044;-91
2021/11/22 03:53:15;;;;;;;1999.90;999.90;;;;;;;;;;5019378;28;20030;-87
2021/11/22 03:55:44;;;;;;;1999.90;999.90;;;;;;;;;;5019100;28;20033;-88
2021/11/22 03:58:11;;;;;;;1999.90;999.90;;;;;;;;;;5018964;28;20038;-88
2021/11/22 04:00:37;;;;;;;1999.90;999.90;;;;;;;;;;4986348;28;20052;-88
2021/11/22 04:03:04;;;;;;;1999.90;999.90;;;;;;;;;;5002740;28;20021;-88
2021/11/22 04:05:29;;;;;;;1999.90;999.90;;;;;;;;;;5019015;28;20042;-89
2021/11/22 04:07:55;;;;;;;1999.90;999.90;;;;;;;;;;5018713;28;20076;-88
2021/11/22 04:10:25;;;;;;;1999.90;999.90;;;;;;;;;;4998853;28;20033;-89
2021/11/22 04:12:51;;;;;;;1999.90;999.90;;;;;;;;;;4985867;28;20037;-89
2021/11/22 04:15:17;;;;;;;1999.90;999.90;;;;;;;;;;5002309;28;20030;-88
2021/11/22 04:17:44;;;;;;;1999.90;999.90;;;;;;;;;;5002671;28;20025;-90
2021/11/22 04:20:12;;;;;;;1999.90;999.90;;;;;;;;;;5018874;28;20484;-89
2021/11/22 04:22:38;;;;;;;1999.90;999.90;;;;;;;;;;4986063;28;20040;-88
2021/11/22 04:25:07;;;;;;;1999.90;999.90;;;;;;;;;;5018471;28;20041;-89
2021/11/22 04:27:34;;;;;;;1999.90;999.90;;;;;;;;;;5018345;28;20163;-88
2021/11/22 04:30:01;;;;;;;1999.90;999.90;;;;;;;;;;4985968;28;20044;-88
2021/11/22 04:32:26;;;;;;;1999.90;999.90;;;;;;;;;;4986076;28;20484;-88
2021/11/22 04:34:54;;;;;;;1999.90;999.90;;;;;;;;;;5001885;28;20056;-88
2021/11/22 04:37:19;;;;;;;1999.90;999.90;;;;;;;;;;5017705;28;20116;-88
2021/11/22 04:39:47;;;;;;;1999.90;999.90;;;;;;;;;;5018183;28;20037;-89
2021/11/22 04:42:12;;;;;;;1999.90;999.90;;;;;;;;;;5018549;28;20034;-88
2021/11/22 04:44:38;;;;;;;1999.90;999.90;;;;;;;;;;5018173;28;20045;-88
2021/11/22 04:47:09;;;;;;;1999.90;999.90;;;;;;;;;;5018271;28;20041;-89
2021/11/22 04:49:37;;;;;;;1999.90;999.90;;;;;;;;;;5018609;28;20488;-89
2021/11/22 04:52:07;;;;;;;1999.90;999.90;;;;;;;;;;4985489;28;20084;-89
2021/11/22 04:54:34;;;;;;;1999.90;999.90;;;;;;;;;;5001243;28;20025;-89
2021/11/22 04:57:00;;;;;;;1999.90;999.90;;;;;;;;;;5001252;28;20183;-87
2021/11/22 04:59:26;;;;;;;1999.90;999.90;;;;;;;;;;5017444;28;20067;-89
2021/11/22 05:01:51;;;;;;;1999.90;999.90;;;;;;;;;;5017413;28;20087;-90
2021/11/22 05:04:26;;;;;;;1999.90;999.90;;;;;;;;;;4985172;28;20029;-88
2021/11/22 05:06:51;;;;;;;1999.90;999.90;;;;;;;;;;4984903;28;20041;-89
2021/11/22 05:09:22;;;;;;;1999.90;999.90;;;;;;;;;;5016971;28;20412;-89
2021/11/22 05:11:50;;;;;;;1999.90;999.90;;;;;;;;;;5016088;28;20072;-85
2021/11/22 05:14:17;;;;;;;1999.90;999.90;;;;;;;;;;5016029;28;20064;-85
2021/11/22 05:16:44;;;;;;;1999.90;999.90;;;;;;;;;;4980306;28;20030;-86
2021/11/22 05:19:11;;;;;;;1999.90;999.90;;;;;;;;;;4996776;28;20551;-87
2021/11/22 05:21:37;;;;;;;1999.90;999.90;;;;;;;;;;4998442;28;20030;-87
2021/11/22 05:24:02;;;;;;;1999.90;999.90;;;;;;;;;;4984294;28;20029;-87
2021/11/22 05:26:31;;;;;;;1999.90;999.90;;;;;;;;;;5001262;28;20091;-87
2021/11/22 05:29:00;;;;;;;1999.90;999.90;;;;;;;;;;4984798;28;20056;-87
2021/11/22 05:31:27;;;;;;;1999.90;999.90;;;;;;;;;;5013715;28;20087;-88
2021/11/22 05:33:55;;;;;;;1999.90;999.90;;;;;;;;;;4983734;28;20038;-87
2021/11/22 05:36:20;;;;;;;1999.90;999.90;;;;;;;;;;4997638;28;20034;-87
2021/11/22 05:38:47;;;;;;;1999.90;999.90;;;;;;;;;;4979841;28;20068;-87
2021/11/22 05:41:16;;;;;;;1999.90;999.90;;;;;;;;;;4975166;28;20048;-87
2021/11/22 05:43:43;;;;;;;1999.90;999.90;;;;;;;;;;4980639;28;20156;-87
2021/11/22 05:46:09;;;;;;;1999.90;999.90;;;;;;;;;;4980982;28;20034;-87
2021/11/22 05:48:35;;;;;;;1999.90;999.90;;;;;;;;;;4980933;28;20061;-87
2021/11/22 05:51:01;;;;;;;1999.90;999.90;;;;;;;;;;4980738;28;20124;-87
2021/11/22 05:53:34;;;;;;;1999.90;999.90;;;;;;;;;;4980860;28;20615;-87
2021/11/22 05:56:04;;;;;;;1999.90;999.90;;;;;;;;;;4986155;28;20029;-87
2021/11/22 05:58:32;;;;;;;1999.90;999.90;;;;;;;;;;5000488;28;20491;-87
2021/11/22 06:00:59;;;;;;;1999.90;999.90;;;;;;;;;;4996791;28;20037;-86
2021/11/22 06:03:26;;;;;;;1999.90;999.90;;;;;;;;;;4980424;28;20045;-87
2021/11/22 06:05:52;;;;;;;1999.90;999.90;;;;;;;;;;4983884;28;20127;-86
2021/11/22 06:08:17;;;;;;;1999.90;999.90;;;;;;;;;;5015076;28;20551;-87
2021/11/22 06:10:44;;;;;;;1999.90;999.90;;;;;;;;;;4999977;28;20041;-87
2021/11/22 06:13:12;;;;;;;1999.90;999.90;;;;;;;;;;4999498;28;20041;-87
2021/11/22 06:15:38;;;;;;;1999.90;999.90;;;;;;;;;;5000727;28;20032;-88
2021/11/22 06:18:04;;;;;;;1999.90;999.90;;;;;;;;;;4999817;28;20535;-87
2021/11/22 06:20:32;;;;;;;1999.90;999.90;;;;;;;;;;4983798;28;20044;-87
2021/11/22 06:22:57;;;;;;;1999.90;999.90;;;;;;;;;;4999048;28;20026;-88
2021/11/22 06:25:23;;;;;;;1999.90;999.90;;;;;;;;;;5015699;28;20188;-87
2021/11/22 06:27:50;;;;;;;1999.90;999.90;;;;;;;;;;5000125;28;20064;-90
2021/11/22 06:30:16;;;;;;;1999.90;999.90;;;;;;;;;;4995659;28;20034;-87
2021/11/22 06:32:46;;;;;;;1999.90;999.90;;;;;;;;;;4980073;28;20037;-87
2021/11/22 06:35:12;;;;;;;1999.90;999.90;;;;;;;;;;4980108;28;20168;-91
2021/11/22 06:37:38;;;;;;;1999.90;999.90;;;;;;;;;;4980171;28;20497;-90
2021/11/22 06:40:07;;;;;;;1999.90;999.90;;;;;;;;;;4980469;28;20036;-89
2021/11/22 06:42:36;;;;;;;1999.90;999.90;;;;;;;;;;4964203;28;20032;-91
2021/11/22 06:45:04;;;;;;;1999.90;999.90;;;;;;;;;;4980823;28;20496;-91
2021/11/22 06:47:33;;;;;;;1999.90;999.90;;;;;;;;;;5012746;28;20037;-89
2021/11/22 06:50:02;;;;;;;1999.90;999.90;;;;;;;;;;4980327;28;20088;-91
2021/11/22 06:52:29;;;;;;;1999.90;999.90;;;;;;;;;;5012115;28;20413;-90
2021/11/22 06:54:57;;;;;;;1999.90;999.90;;;;;;;;;;4979905;28;20030;-89
2021/11/22 06:57:24;;;;;;;1999.90;999.90;;;;;;;;;;4982419;28;20037;-89
2021/11/22 06:59:49;;;;;;;1999.90;999.90;;;;;;;;;;4999224;28;20547;-88
2021/11/22 07:02:16;;;;;;;1999.90;999.90;;;;;;;;;;4986381;28;20037;-85
2021/11/22 07:04:44;;;;;;;1999.90;999.90;;;;;;;;;;5013348;28;20030;-86
2021/11/22 07:07:11;;;;;;;1999.90;999.90;;;;;;;;;;4996872;28;20041;-86
2021/11/22 07:09:36;;;;;;;1999.90;999.90;;;;;;;;;;5026149;28;20518;-89
2021/11/22 07:12:03;;;;;;;1999.90;999.90;;;;;;;;;;4989095;28;20112;-85
2021/11/22 07:14:29;;;;;;;1999.90;999.90;;;;;;;;;;4982283;28;20042;-85
2021/11/22 07:16:56;;;;;;;1999.90;999.90;;;;;;;;;;4982396;28;20044;-86
2021/11/22 07:19:22;;;;;;;1999.90;999.90;;;;;;;;;;4980402;28;20032;-86
2021/11/22 07:21:49;;;;;;;1999.90;999.90;;;;;;;;;;5014694;28;20041;-86
2021/11/22 07:24:16;;;;;;;1999.90;999.90;;;;;;;;;;5014460;28;20476;-86
2021/11/22 07:26:42;;;;;;;1999.90;999.90;;;;;;;;;;5014984;28;20045;-85
2021/11/22 07:29:10;;;;;;;1999.90;999.90;;;;;;;;;;4984334;28;20033;-86
2021/11/22 07:31:36;;;;;;;1999.90;999.90;;;;;;;;;;5001664;28;20033;-86
2021/11/22 07:34:04;;;;;;;1999.90;999.90;;;;;;;;;;4981769;28;20038;-86
2021/11/22 07:36:30;;;;;;;1999.90;999.90;;;;;;;;;;4998993;28;20037;-86
2021/11/22 07:38:57;;;;;;;1999.90;999.90;;;;;;;;;;5014925;28;20032;-86
2021/11/22 07:41:23;;;;;;;1999.90;999.90;;;;;;;;;;4982045;28;20038;-87
2021/11/22 07:43:49;;;;;;;1999.90;999.90;;;;;;;;;;4998159;28;20069;-86
2021/11/22 07:46:16;;;;;;;1999.90;999.90;;;;;;;;;;5014797;28;20126;-86
2021/11/22 07:48:42;;;;;;;1999.90;999.90;;;;;;;;;;4981439;28;20504;-86
2021/11/22 07:51:08;;;;;;;1999.90;999.90;;;;;;;;;;4981485;28;20059;-86
2021/11/22 07:53:34;;;;;;;1999.90;999.90;;;;;;;;;;5014058;28;20550;-86
2021/11/22 07:56:01;;;;;;;1999.90;999.90;;;;;;;;;;4978449;28;20053;-86
2021/11/22 07:58:28;;;;;;;1999.90;999.90;;;;;;;;;;4978630;28;20535;-85
2021/11/22 08:00:55;;;;;;;1999.90;999.90;;;;;;;;;;4997960;28;20033;-85
2021/11/22 08:03:20;;;;;;;1999.90;999.90;;;;;;;;;;4997973;28;20033;-86
2021/11/22 08:05:49;;;;;;;1999.90;999.90;;;;;;;;;;4998156;28;20040;-86
2021/11/22 08:08:16;;;;;;;1999.90;999.90;;;;;;;;;;4994562;28;20038;-85
2021/11/22 08:10:42;;;;;;;1999.90;999.90;;;;;;;;;;4994060;28;20034;-86
2021/11/22 08:13:08;;;;;;;1999.90;999.90;;;;;;;;;;4995641;28;20041;-84
2021/11/22 08:15:36;;;;;;;1999.90;999.90;;;;;;;;;;4980715;28;20045;-84
2021/11/22 08:18:03;;;;;;;1999.90;999.90;;;;;;;;;;4981142;28;20183;-82
2021/11/22 08:20:30;;;;;;;1999.90;999.90;;;;;;;;;;5014099;28;20049;-85
2021/11/22 08:22:55;;;;;;;1999.90;999.90;;;;;;;;;;4995954;28;20047;-83
2021/11/22 08:25:23;;;;;;;1999.90;999.90;;;;;;;;;;4995652;28;20049;-85
2021/11/22 08:27:49;;;;;;;1999.90;999.90;;;;;;;;;;5029451;28;20237;-84
2021/11/22 08:30:17;;;;;;;1999.90;999.90;;;;;;;;;;5001683;28;20040;-85
2021/11/22 08:32:43;;;;;;;1999.90;999.90;;;;;;;;;;4975042;28;20044;-84
2021/11/22 08:35:10;;;;;;;1999.90;999.90;;;;;;;;;;5016937;28;20049;-85
2021/11/22 08:37:38;;;;;;;1999.90;999.90;;;;;;;;;;5001250;28;20029;-87
2021/11/22 08:40:04;;;;;;;1999.90;999.90;;;;;;;;;;5001044;28;20038;-85
2021/11/22 08:42:30;;;;;;;1999.90;999.90;;;;;;;;;;4984982;28;20037;-86
2021/11/22 08:44:57;;;;;;;1999.90;999.90;;;;;;;;;;5017146;28;20120;-86
2021/11/22 08:47:23;;;;;;;1999.90;999.90;;;;;;;;;;4984867;28;20029;-86
2021/11/22 08:49:49;;;;;;;1999.90;999.90;;;;;;;;;;5000514;28;20106;-86
2021/11/22 08:52:16;;;;;;;1999.90;999.90;;;;;;;;;;5000996;28;20034;-86
2021/11/22 08:54:41;;;;;;;1999.90;999.90;;;;;;;;;;5017260;28;20407;-86
2021/11/22 08:57:08;;;;;;;1999.90;999.90;;;;;;;;;;5017695;28;20037;-86
2021/11/22 08:59:36;;;;;;;1999.90;999.90;;;;;;;;;;5017368;28;20625;-86
2021/11/22 09:02:04;;;;;;;1999.90;999.90;;;;;;;;;;5016707;28;20091;-85
2021/11/22 09:04:30;;;;;;;1999.90;999.90;;;;;;;;;;5009478;28;20044;-86
2021/11/22 09:06:57;;;;;;;1999.90;999.90;;;;;;;;;;4979507;28;20037;-86
2021/11/22 09:09:24;;;;;;;1999.90;999.90;;;;;;;;;;4984388;28;20037;-86
2021/11/22 09:11:49;;;;;;;1999.90;999.90;;;;;;;;;;4999817;28;20041;-86
2021/11/22 09:14:15;;;;;;;1999.90;999.90;;;;;;;;;;5017004;28;20450;-87
2021/11/22 09:16:41;;;;;;;1999.90;999.90;;;;;;;;;;4997102;28;20103;-86
2021/11/22 09:19:07;;;;;;;1999.90;999.90;;;;;;;;;;4980949;28;20061;-86
2021/11/22 09:21:32;;;;;;;1999.90;999.90;;;;;;;;;;4965260;28;20583;-87
2021/11/22 09:23:59;;;;;;;1999.90;999.90;;;;;;;;;;4981430;28;20037;-86
2021/11/22 09:26:28;;;;;;;1999.90;999.90;;;;;;;;;;4989572;28;20049;-87
2021/11/22 09:28:56;;;;;;;1999.90;999.90;;;;;;;;;;5000084;28;20423;-87
2021/11/22 09:31:22;;;;;;;1999.90;999.90;;;;;;;;;;4980586;28;20736;-87
2021/11/22 09:33:50;;;;;;;1999.90;999.90;;;;;;;;;;4992827;28;20069;-88
2021/11/22 09:36:18;;;;;;;1999.90;999.90;;;;;;;;;;4981903;28;20033;-87
2021/11/22 09:38:45;;;;;;;1999.90;999.90;;;;;;;;;;4997341;28;20488;-88
2021/11/22 09:41:12;;;;;;;1999.90;999.90;;;;;;;;;;4983764;28;20087;-87
2021/11/22 09:43:43;;;;;;;1999.90;999.90;;;;;;;;;;5015537;28;20033;-87
2021/11/22 09:46:09;;;;;;;1999.90;999.90;;;;;;;;;;5000605;28;20037;-88
2021/11/22 09:48:34;;;;;;;1999.90;999.90;;;;;;;;;;5000537;28;20080;-88
2021/11/22 09:51:00;;;;;;;1999.90;999.90;;;;;;;;;;4994326;28;20046;-87
2021/11/22 09:53:28;;;;;;;1999.90;999.90;;;;;;;;;;5000019;28;20040;-88
2021/11/22 09:55:59;;;;;;;1999.90;999.90;;;;;;;;;;5016896;28;20037;-87
2021/11/22 09:58:28;;;;;;;1999.90;999.90;;;;;;;;;;5016313;28;20037;-86
2021/11/22 10:00:58;;;;;;;1999.90;999.90;;;;;;;;;;5016836;28;20084;-88
2021/11/22 10:03:25;;;;;;;1999.90;999.90;;;;;;;;;;4996622;28;20069;-86
2021/11/22 10:05:58;;;;;;;1999.90;999.90;;;;;;;;;;5015975;28;20026;-86
2021/11/22 10:08:23;;;;;;;1999.90;999.90;;;;;;;;;;4999778;28;20033;-87
2021/11/22 10:10:53;;;;;;;1999.90;999.90;;;;;;;;;;5000562;28;20097;-87
2021/11/22 10:13:20;;;;;;;1999.90;999.90;;;;;;;;;;5018939;28;20098;-87
2021/11/22 10:15:45;;;;;;;1999.90;999.90;;;;;;;;;;5009385;28;20068;-87
2021/11/22 10:18:16;;;;;;;1999.90;999.90;;;;;;;;;;5015823;28;20065;-87
2021/11/22 10:20:47;;;;;;;1999.90;999.90;;;;;;;;;;5008316;28;20034;-88
2021/11/22 10:23:14;;;;;;;1999.90;999.90;;;;;;;;;;5029110;28;20034;-87
2021/11/22 10:25:42;;;;;;;1999.90;999.90;;;;;;;;;;4996434;28;20052;-87
2021/11/22 10:28:18;;;;;;;1999.90;999.90;;;;;;;;;;4976025;28;20029;-87
2021/11/22 10:30:51;;;;;;;1999.90;999.90;;;;;;;;;;4998344;28;20037;-88
2021/11/22 10:33:21;;;;;;;1999.90;999.90;;;;;;;;;;5015679;28;20041;-87
2021/11/22 10:35:49;;;;;;;1999.90;999.90;;;;;;;;;;5016044;28;20071;-87
2021/11/22 10:38:22;;;;;;;1999.90;999.90;;;;;;;;;;5015337;28;20038;-86
2021/11/22 10:40:53;;;;;;;1999.90;999.90;;;;;;;;;;5016170;28;20088;-87
2021/11/22 10:43:19;;;;;;;1999.90;999.90;;;;;;;;;;4999329;28;20917;-87
2021/11/22 10:45:47;;;;;;;1999.90;999.90;;;;;;;;;;4982980;28;20038;-87
2021/11/22 10:48:19;;;;;;;1999.90;999.90;;;;;;;;;;5015764;28;20040;-87
2021/11/22 10:50:50;;;;;;;1999.90;999.90;;;;;;;;;;5014934;28;20094;-87
2021/11/22 10:53:25;;;;;;;1999.90;999.90;;;;;;;;;;4983407;28;20167;-87
2021/11/22 10:55:57;;;;;;;1999.90;999.90;;;;;;;;;;5015613;28;20075;-87
2021/11/22 10:58:34;;;;;;;1999.90;999.90;;;;;;;;;;5014947;28;20051;-87
2021/11/22 11:01:28;;;;;;;1999.90;999.90;;;;;;;;;;5007089;28;20040;-86
2021/11/22 11:04:07;;;;;;;1999.90;999.90;;;;;;;;;;5002630;28;20040;-87
2021/11/22 11:06:43;;;;;;;1999.90;999.90;;;;;;;;;;5018844;28;20029;-86
2021/11/22 11:09:24;;;;;;;1999.90;999.90;;;;;;;;;;5002704;28;20547;-87
2021/11/22 11:11:55;;;;;;;1999.90;999.90;;;;;;;;;;5017222;28;20037;-87
2021/11/22 11:14:22;;;;;;;1999.90;999.90;;;;;;;;;;4982575;28;20562;-87
2021/11/22 11:16:47;;;;;;;1999.90;999.90;;;;;;;;;;4998788;28;20033;-87
2021/11/22 11:19:16;;;;;;;1999.90;999.90;;;;;;;;;;4982836;28;20079;-87
2021/11/22 11:21:45;;;;;;;1518.68;752.10;;;;;;;;;;4982656;28;20575;-87
2021/11/22 11:24:12;;;;;;;1999.90;999.90;;;;;;;;;;4982475;28;20025;-87
2021/11/22 11:26:40;;;;;;;1999.90;999.90;;;;;;;;;;4998673;28;20503;-87
2021/11/22 11:29:06;;;;;;;1999.90;999.90;;;;;;;;;;4981993;28;20045;-86
2021/11/22 11:31:34;;;;;;;1999.90;999.90;;;;;;;;;;4981945;28;20030;-86
2021/11/22 11:34:06;;;;;;;1999.90;999.90;;;;;;;;;;4999017;28;20034;-86
2021/11/22 11:37:11;;;;;;;1999.90;999.90;;;;;;;;;;4998938;28;20120;-87
2021/11/22 11:39:51;;;;;;;1999.90;999.90;;;;;;;;;;5014638;28;20419;-85
2021/11/22 11:42:22;;;;;;;1999.90;999.90;;;;;;;;;;5014407;28;20057;-87
2021/11/22 11:44:54;;;;;;;1999.90;999.90;;;;;;;;;;5014607;28;20037;-85
2021/11/22 11:47:26;;;;;;;;;;;;;;;;;;5031447;28;20504;-86
2021/11/22 11:49:52;;;;;;;1999.90;999.90;;;;;;;;;;4998237;28;19967;-85
2021/11/22 11:52:26;;;;;;;1999.90;999.90;;;;;;;;;;4978174;28;20034;-86
2021/11/22 11:54:52;;;;;;;1999.90;999.90;;;;;;;;;;4978734;28;20038;-85
2021/11/22 11:57:20;;;;;;;1999.90;999.90;;;;;;;;;;4994669;28;20046;-86
2021/11/22 11:59:46;;;;;;;1999.90;999.90;;;;;;;;;;4994469;28;20033;-86
2021/11/22 12:02:25;;;;;;;1999.90;999.90;;;;;;;;;;5014160;28;20502;-84
2021/11/22 12:04:55;;;;;;;1999.90;999.90;;;;;;;;;;5014048;28;20040;-86
2021/11/22 12:07:29;;;;;;;1999.90;999.90;;;;;;;;;;5002240;28;20495;-86
2021/11/22 12:10:14;;;;;;;1537.43;753.67;;;;;;;;;;4985642;28;20076;-85
2021/11/22 12:12:50;;;;;;;1999.90;999.90;;;;;;;;;;5018210;28;20099;-86
2021/11/22 12:15:41;;;;;;;1072.00;506.00;;;;;;;;;;5018746;28;20116;-86
2021/11/22 12:18:29;;;;;;;1999.90;999.90;;;;;;;;;;5017906;28;20029;-86
2021/11/22 12:21:07;;;;;;;1999.90;999.90;;;;;;;;;;5018312;28;20041;-87
2021/11/22 12:23:45;;;;;;;1999.90;999.90;;;;;;;;;;4986901;28;20029;-89
2021/11/22 12:26:13;;;;;;;1999.90;999.90;;;;;;;;;;4984607;28;20038;-86
2021/11/22 12:28:38;;;;;;;1999.90;999.90;;;;;;;;;;4984845;28;20033;-86
2021/11/22 12:31:05;;;;;;;1999.90;999.90;;;;;;;;;;5017800;28;20045;-88
2021/11/22 12:33:38;;;;;;;1999.90;999.90;;;;;;;;;;5002075;28;20120;-90
2021/11/22 12:36:06;;;;;;;1999.90;999.90;;;;;;;;;;4987092;28;20130;-88
2021/11/22 12:38:52;;;;;;;1999.90;999.90;;;;;;;;;;5018921;28;20030;-87
2021/11/22 12:41:29;;;;;;;1999.90;999.90;;;;;;;;;;5001772;28;20037;-88
2021/11/22 12:43:57;;;;;;;1574.47;756.17;;;;;;;;;;5002089;28;20037;-88
2021/11/22 12:46:34;;;;;;;1999.90;999.90;;;;;;;;;;5018528;28;20124;-88
2021/11/22 12:49:23;;;;;;;1999.90;999.90;;;;;;;;;;5018126;28;20499;-87
2021/11/22 12:51:51;;;;;;;1999.90;999.90;;;;;;;;;;5003521;28;20517;-88
2021/11/22 12:54:17;;;;;;;1999.90;999.90;;;;;;;;;;5018001;28;20071;-88
2021/11/22 12:56:44;;;;;;;1999.90;999.90;;;;;;;;;;5001642;28;20034;-87
2021/11/22 12:59:22;;;;;;;1999.90;999.90;;;;;;;;;;5001760;28;20044;-88
2021/11/22 13:01:50;;;;;;;1999.90;999.90;;;;;;;;;;5019788;28;20033;-88
2021/11/22 13:04:41;;;;;;;1999.90;999.90;;;;;;;;;;5001418;28;20029;-88
2021/11/22 13:07:33;;;;;;;1999.90;999.90;;;;;;;;;;5017307;28;20048;-87
2021/11/22 13:09:58;;;;;;;1999.90;999.90;;;;;;;;;;4997909;28;20049;-88
2021/11/22 13:12:51;;;;;;;1999.90;999.90;;;;;;;;;;4998118;28;20053;-88
2021/11/22 13:15:35;;;;;;;1999.90;999.90;;;;;;;;;;5012520;28;20041;-89
2021/11/22 13:18:07;;;;;;;1999.90;999.90;;;;;;;;;;5000108;28;20037;-88
2021/11/22 13:20:39;;;;;;;1999.90;999.90;;;;;;;;;;4981096;28;20072;-87
2021/11/22 13:23:16;;;;;;;1999.90;999.90;;;;;;;;;;4981762;28;20065;-87
2021/11/22 13:25:42;;;;;;;1999.90;999.90;;;;;;;;;;4998184;28;20034;-88
2021/11/22 13:28:20;;;;;;;1999.90;999.90;;;;;;;;;;4997633;28;20033;-85
2021/11/22 13:30:47;;;;;;;1999.90;999.90;;;;;;;;;;4998191;28;20030;-88
2021/11/22 13:33:13;;;;;;;1999.90;999.90;;;;;;;;;;4996902;28;20125;-86
2021/11/22 13:35:38;;;;;;;1999.90;999.90;;;;;;;;;;4978630;28;20142;-87
2021/11/22 13:38:13;;;;;;;1999.90;999.90;;;;;;;;;;4997088;28;20412;-86
2021/11/22 13:40:40;;;;;;;1999.90;999.90;;;;;;;;;;4980810;28;20033;-87
2021/11/22 13:43:16;;;;;;;1999.90;999.90;;;;;;;;;;4997232;28;20049;-86
2021/11/22 13:45:56;;;;;;;1999.90;999.90;;;;;;;;;;4997129;28;20030;-86
2021/11/22 13:48:56;;;;;;;1999.90;999.90;;;;;;;;;;4981008;28;20038;-85
2021/11/22 13:51:25;;;;;;;1999.90;999.90;;;;;;;;;;5012621;28;20029;-84